Time;durP1;ratioP1;P1;durP2;ratioP2;P2;SDS_P1;SDS_P2;PMS_P1;PMS_P2;Temp;Humidity;BMP_temperature;BMP_pressure;BME280_temperature;BME280_humidity;BME280_pressure;Samples;Min_cycle;Max_cycle;Signal;HPM_P1;HPM_P2
2022/04/29 00:01:22;;;;;;;;;;;;;;;;;;5056639;28;19995;-43
2022/04/29 00:03:48;;;;;;;;;;;;;;;;;;5056674;28;19905;-43
2022/04/29 00:06:13;;;;;;;;;;;;;;;;;;5056704;28;20004;-43
2022/04/29 00:08:38;;;;;;;;;;;;;;;;;;5056575;28;20015;-42
2022/04/29 00:11:03;;;;;;;;;;;;;;;;;;5056446;28;19968;-43
2022/04/29 00:13:28;;;;;;;;;;;;;;;;;;5056340;28;19909;-42
2022/04/29 00:15:53;;;;;;;;;;;;;;;;;;5056469;28;19967;-42
2022/04/29 00:18:18;;;;;;;;;;;;;;;;;;5056219;28;19913;-43
2022/04/29 00:20:44;;;;;;;;;;;;;;;;;;5056143;28;19970;-43
2022/04/29 00:23:09;;;;;;;;;;;;;;;;;;5056361;28;19932;-42
2022/04/29 00:25:34;;;;;;;;;;;;;;;;;;5055490;28;19920;-43
2022/04/29 00:27:59;;;;;;;;;;;;;;;;;;5055731;28;20014;-43
2022/04/29 00:30:24;;;;;;;;;;;;;;;;;;5056129;28;19963;-43
2022/04/29 00:32:49;;;;;;;;;;;;;;;;;;5055991;28;20038;-43
2022/04/29 00:35:14;;;;;;;;;;;;;;;;;;5055938;28;19915;-43
2022/04/29 00:37:40;;;;;;;;;;;;;;;;;;5056195;28;19912;-43
2022/04/29 00:40:05;;;;;;;;;;;;;;;;;;5056080;28;19962;-43
2022/04/29 00:42:30;;;;;;;;;;;;;;;;;;5055898;28;19962;-43
2022/04/29 00:44:55;;;;;;;;;;;;;;;;;;5055915;28;19970;-43
2022/04/29 00:47:20;;;;;;;;;;;;;;;;;;5055922;28;19935;-43
2022/04/29 00:49:45;;;;;;;;;;;;;;;;;;5055714;28;19919;-44
2022/04/29 00:52:10;;;;;;;;;;;;;;;;;;5055573;28;19909;-43
2022/04/29 00:54:35;;;;;;;;;;;;;;;;;;5055460;28;20002;-43
2022/04/29 00:57:00;;;;;;;;;;;;;;;;;;5055384;28;19947;-43
2022/04/29 00:59:26;;;;;;;;;;;;;;;;;;5055398;28;20002;-43
2022/04/29 01:01:51;;;;;;;;;;;;;;;;;;5055607;28;19909;-43
2022/04/29 01:04:16;;;;;;;;;;;;;;;;;;5055292;28;20283;-43
2022/04/29 01:06:41;;;;;;;;;;;;;;;;;;5055491;28;19909;-43
2022/04/29 01:09:07;;;;;;;;;;;;;;;;;;5055069;28;19913;-43
2022/04/29 01:11:32;;;;;;;;;;;;;;;;;;5055265;28;19909;-43
2022/04/29 01:13:57;;;;;;;;;;;;;;;;;;5055146;28;19909;-43
2022/04/29 01:16:22;;;;;;;;;;;;;;;;;;5054801;28;20003;-43
2022/04/29 01:18:47;;;;;;;;;;;;;;;;;;5053943;28;19909;-44
2022/04/29 01:21:12;;;;;;;;;;;;;;;;;;5055027;28;19908;-43
2022/04/29 01:23:37;;;;;;;;;;;;;;;;;;5055321;28;19909;-43
2022/04/29 01:26:04;;;;;;;;;;;;;;;;;;5063437;22;19908;-42
2022/04/29 01:28:30;;;;;;;;;;;;;;;;;;5033945;28;19925;-43
2022/04/29 01:30:55;;;;;;;;;;;;;;;;;;5035259;28;20007;-42
2022/04/29 01:33:20;;;;;;;;;;;;;;;;;;5035053;28;19909;-43
2022/04/29 01:35:45;;;;;;;;;;;;;;;;;;5035035;28;19932;-42
2022/04/29 01:38:10;;;;;;;;;;;;;;;;;;5035135;28;20334;-42
2022/04/29 01:40:35;;;;;;;;;;;;;;;;;;5035081;28;20296;-42
2022/04/29 01:43:02;;;;;;;;;;;;;;;;;;5034936;28;19916;-42
2022/04/29 01:45:27;;;;;;;;;;;;;;;;;;5034657;28;19913;-43
2022/04/29 01:47:52;;;;;;;;;;;;;;;;;;5035251;28;20352;-43
2022/04/29 01:50:17;;;;;;;;;;;;;;;;;;5054527;28;20272;-42
2022/04/29 01:52:42;;;;;;;;;;;;;;;;;;5054835;28;19909;-43
2022/04/29 01:55:08;;;;;;;;;;;;;;;;;;5054956;28;19944;-42
2022/04/29 01:57:33;;;;;;;;;;;;;;;;;;5054764;28;20248;-42
2022/04/29 01:59:58;;;;;;;;;;;;;;;;;;5054833;28;19913;-42
2022/04/29 02:02:23;;;;;;;;;;;;;;;;;;5054808;28;19908;-43
2022/04/29 02:04:48;;;;;;;;;;;;;;;;;;5054743;28;19909;-43
2022/04/29 02:07:13;;;;;;;;;;;;;;;;;;5054829;28;19909;-43
2022/04/29 02:09:38;;;;;;;;;;;;;;;;;;5058022;28;19917;-43
2022/04/29 02:12:07;;;;;;;;;;;;;;;;;;5058848;28;19916;-43
2022/04/29 02:14:32;;;;;;;;;;;;;;;;;;5058952;28;19951;-42
2022/04/29 02:16:57;;;;;;;;;;;;;;;;;;5058493;28;19912;-43
2022/04/29 02:19:22;;;;;;;;;;;;;;;;;;5058809;28;19944;-43
2022/04/29 02:21:48;;;;;;;;;;;;;;;;;;5058667;28;19909;-42
2022/04/29 02:24:13;;;;;;;;;;;;;;;;;;5058880;28;19962;-42
2022/04/29 02:26:38;;;;;;;;;;;;;;;;;;5057462;28;19924;-42
2022/04/29 02:29:03;;;;;;;;;;;;;;;;;;5058386;28;19924;-42
2022/04/29 02:31:28;;;;;;;;;;;;;;;;;;5059122;28;19912;-42
2022/04/29 02:33:53;;;;;;;;;;;;;;;;;;5058787;28;19947;-41
2022/04/29 02:36:19;;;;;;;;;;;;;;;;;;5058746;28;19920;-44
2022/04/29 02:38:44;;;;;;;;;;;;;;;;;;5058742;28;19916;-42
2022/04/29 02:41:10;;;;;;;;;;;;;;;;;;5058395;28;19908;-42
2022/04/29 02:43:35;;;;;;;;;;;;;;;;;;5058321;28;19909;-44
2022/04/29 02:46:00;;;;;;;;;;;;;;;;;;5058347;28;19952;-42
2022/04/29 02:48:25;;;;;;;;;;;;;;;;;;5057985;28;19919;-44
2022/04/29 02:50:50;;;;;;;;;;;;;;;;;;5058375;28;19915;-43
2022/04/29 02:53:15;;;;;;;;;;;;;;;;;;5058677;28;20372;-43
2022/04/29 02:55:40;;;;;;;;;;;;;;;;;;5057728;28;20022;-43
2022/04/29 02:58:05;;;;;;;;;;;;;;;;;;5057999;28;19962;-43
2022/04/29 03:00:30;;;;;;;;;;;;;;;;;;5057745;28;19909;-44
2022/04/29 03:02:56;;;;;;;;;;;;;;;;;;5057999;28;19999;-43
2022/04/29 03:05:21;;;;;;;;;;;;;;;;;;5057995;28;20000;-43
2022/04/29 03:07:46;;;;;;;;;;;;;;;;;;5057787;28;19916;-42
2022/04/29 03:10:11;;;;;;;;;;;;;;;;;;5057672;28;19960;-43
2022/04/29 03:12:36;;;;;;;;;;;;;;;;;;5057783;28;19908;-43
2022/04/29 03:15:17;;;;;;;;;;;;;;;;;;5057841;28;19909;-42
2022/04/29 03:20:26;;;;;;;;;;;;;;;;;;5057713;28;19916;-43
2022/04/29 03:22:51;;;;;;;;;;;;;;;;;;5057666;28;19909;-43
2022/04/29 03:25:16;;;;;;;;;;;;;;;;;;5057494;28;19913;-43
2022/04/29 03:27:41;;;;;;;;;;;;;;;;;;5057136;28;19917;-43
2022/04/29 03:30:06;;;;;;;;;;;;;;;;;;5057758;28;19921;-43
2022/04/29 03:32:31;;;;;;;;;;;;;;;;;;5057166;28;20344;-42
2022/04/29 03:34:56;;;;;;;;;;;;;;;;;;5057309;28;19967;-44
2022/04/29 03:37:21;;;;;;;;;;;;;;;;;;5057175;28;19909;-42
2022/04/29 03:39:47;;;;;;;;;;;;;;;;;;5057327;28;19909;-43
2022/04/29 03:42:13;;;;;;;;;;;;;;;;;;5057452;28;20024;-43
2022/04/29 03:44:38;;;;;;;;;;;;;;;;;;5057485;28;20379;-42
2022/04/29 03:47:03;;;;;;;;;;;;;;;;;;5057575;28;19955;-42
2022/04/29 03:49:37;;;;;;;;;;;;;;;;;;5057271;28;19912;-43
2022/04/29 03:52:03;;;;;;;;;;;;;;;;;;5057324;28;19916;-42
2022/04/29 03:54:28;;;;;;;;;;;;;;;;;;5057229;28;19921;-42
2022/04/29 03:56:53;;;;;;;;;;;;;;;;;;5057442;28;20005;-42
2022/04/29 03:59:18;;;;;;;;;;;;;;;;;;5056990;28;19944;-42
2022/04/29 04:01:43;;;;;;;;;;;;;;;;;;5057128;28;19908;-42
2022/04/29 04:04:08;;;;;;;;;;;;;;;;;;5057012;28;19909;-43
2022/04/29 04:06:52;;;;;;;;;;;;;;;;;;5057031;28;19921;-43
2022/04/29 04:09:17;;;;;;;;;;;;;;;;;;5056932;28;19913;-42
2022/04/29 04:11:42;;;;;;;;;;;;;;;;;;5056785;28;19936;-43
2022/04/29 04:14:08;;;;;;;;;;;;;;;;;;5057031;28;19913;-42
2022/04/29 04:16:33;;;;;;;;;;;;;;;;;;5056557;28;19930;-42
2022/04/29 04:18:58;;;;;;;;;;;;;;;;;;5056865;28;19912;-43
2022/04/29 04:21:23;;;;;;;;;;;;;;;;;;5056533;28;19909;-43
2022/04/29 04:23:48;;;;;;;;;;;;;;;;;;5056520;28;19909;-42
2022/04/29 04:26:13;;;;;;;;;;;;;;;;;;5055898;28;19919;-43
2022/04/29 04:28:38;;;;;;;;;;;;;;;;;;5056556;28;19921;-43
2022/04/29 04:31:04;;;;;;;;;;;;;;;;;;5055945;28;19909;-43
2022/04/29 04:33:29;;;;;;;;;;;;;;;;;;5056267;28;19909;-43
2022/04/29 04:35:54;;;;;;;;;;;;;;;;;;5056407;28;19962;-43
2022/04/29 04:38:19;;;;;;;;;;;;;;;;;;5056007;28;19970;-42
2022/04/29 04:40:44;;;;;;;;;;;;;;;;;;5056059;28;19935;-42
2022/04/29 04:43:09;;;;;;;;;;;;;;;;;;5056142;28;19916;-43
2022/04/29 04:45:34;;;;;;;;;;;;;;;;;;5056150;28;19912;-42
2022/04/29 04:47:59;;;;;;;;;;;;;;;;;;5056360;28;19955;-42
2022/04/29 04:50:24;;;;;;;;;;;;;;;;;;5055776;28;20368;-42
2022/04/29 04:52:50;;;;;;;;;;;;;;;;;;5055858;28;19932;-43
2022/04/29 04:55:15;;;;;;;;;;;;;;;;;;5055740;28;19919;-44
2022/04/29 04:57:40;;;;;;;;;;;;;;;;;;5055936;28;20400;-42
2022/04/29 05:00:05;;;;;;;;;;;;;;;;;;5056151;28;20395;-43
2022/04/29 05:02:30;;;;;;;;;;;;;;;;;;5055921;28;19966;-42
2022/04/29 05:04:55;;;;;;;;;;;;;;;;;;5055866;28;19916;-43
2022/04/29 05:07:21;;;;;;;;;;;;;;;;;;5055785;28;19946;-44
2022/04/29 05:09:46;;;;;;;;;;;;;;;;;;5055874;28;19913;-42
2022/04/29 05:12:11;;;;;;;;;;;;;;;;;;5055650;28;20311;-41
2022/04/29 05:14:36;;;;;;;;;;;;;;;;;;5055783;28;19913;-43
2022/04/29 05:17:01;;;;;;;;;;;;;;;;;;5055920;28;19909;-42
2022/04/29 05:19:26;;;;;;;;;;;;;;;;;;5055736;28;19909;-42
2022/04/29 05:21:51;;;;;;;;;;;;;;;;;;5055797;28;19909;-43
2022/04/29 05:24:16;;;;;;;;;;;;;;;;;;5055325;28;19913;-42
2022/04/29 05:26:41;;;;;;;;;;;;;;;;;;5054810;28;19928;-43
2022/04/29 05:29:07;;;;;;;;;;;;;;;;;;5055315;28;19917;-44
2022/04/29 05:31:32;;;;;;;;;;;;;;;;;;5055285;28;19909;-42
2022/04/29 05:33:57;;;;;;;;;;;;;;;;;;5055573;28;20275;-42
2022/04/29 05:36:22;;;;;;;;;;;;;;;;;;5055218;28;19916;-42
2022/04/29 05:44:29;;;;;;;;;;;;;;;;;;5042553;28;20261;-42
2022/04/29 05:46:54;;;;;;;;;;;;;;;;;;5055366;28;19916;-42
2022/04/29 05:49:19;;;;;;;;;;;;;;;;;;5055343;28;19920;-42
2022/04/29 05:51:44;;;;;;;;;;;;;;;;;;5054841;28;20275;-42
2022/04/29 05:54:09;;;;;;;;;;;;;;;;;;5054793;28;19917;-42
2022/04/29 05:56:34;;;;;;;;;;;;;;;;;;5054945;28;19913;-43
2022/04/29 05:58:59;;;;;;;;;;;;;;;;;;5055173;28;19920;-42
2022/04/29 06:01:24;;;;;;;;;;;;;;;;;;5054990;28;20253;-42
2022/04/29 06:03:50;;;;;;;;;;;;;;;;;;5055059;28;19909;-42
2022/04/29 06:06:15;;;;;;;;;;;;;;;;;;5054896;28;19963;-42
2022/04/29 06:08:40;;;;;;;;;;;;;;;;;;5054855;28;19913;-42
2022/04/29 06:11:05;;;;;;;;;;;;;;;;;;5054830;28;19952;-42
2022/04/29 06:13:30;;;;;;;;;;;;;;;;;;5054819;28;20375;-42
2022/04/29 06:15:55;;;;;;;;;;;;;;;;;;5054748;28;19932;-43
2022/04/29 06:18:21;;;;;;;;;;;;;;;;;;5054740;28;19936;-43
2022/04/29 06:20:46;;;;;;;;;;;;;;;;;;5054640;28;20360;-43
2022/04/29 06:23:11;;;;;;;;;;;;;;;;;;5054706;28;20364;-43
2022/04/29 06:25:36;;;;;;;;;;;;;;;;;;5054101;28;19917;-43
2022/04/29 06:28:01;;;;;;;;;;;;;;;;;;5054533;28;19917;-43
2022/04/29 06:30:26;;;;;;;;;;;;;;;;;;5054980;28;19925;-43
2022/04/29 06:32:51;;;;;;;;;;;;;;;;;;5054803;28;19917;-43
2022/04/29 06:35:19;;;;;;;;;;;;;;;;;;5054663;28;20340;-43
2022/04/29 06:37:44;;;;;;;;;;;;;;;;;;5054691;28;19909;-43
2022/04/29 06:40:09;;;;;;;;;;;;;;;;;;5054161;28;20287;-42
2022/04/29 06:42:34;;;;;;;;;;;;;;;;;;5054443;28;19916;-42
2022/04/29 06:44:59;;;;;;;;;;;;;;;;;;5054543;28;19916;-42
2022/04/29 06:47:24;;;;;;;;;;;;;;;;;;5054290;28;19909;-43
2022/04/29 06:49:50;;;;;;;;;;;;;;;;;;5054720;28;20130;-42
2022/04/29 06:52:16;;;;;;;;;;;;;;;;;;5054475;28;19913;-43
2022/04/29 06:54:41;;;;;;;;;;;;;;;;;;5055640;28;19917;-44
2022/04/29 06:57:06;;;;;;;;;;;;;;;;;;5058402;28;19913;-42
2022/04/29 06:59:31;;;;;;;;;;;;;;;;;;5058117;28;20362;-43
2022/04/29 07:01:57;;;;;;;;;;;;;;;;;;5058085;28;19909;-42
2022/04/29 07:04:27;;;;;;;;;;;;;;;;;;5058084;28;19908;-42
2022/04/29 07:06:54;;;;;;;;;;;;;;;;;;5058164;28;20310;-43
2022/04/29 07:09:19;;;;;;;;;;;;;;;;;;5056925;28;19917;-42
2022/04/29 07:11:44;;;;;;;;;;;;;;;;;;5057777;28;20376;-42
2022/04/29 07:14:09;;;;;;;;;;;;;;;;;;5057979;28;19960;-42
2022/04/29 07:16:35;;;;;;;;;;;;;;;;;;5057735;28;19923;-42
2022/04/29 07:19:00;;;;;;;;;;;;;;;;;;5057629;28;19920;-42
2022/04/29 07:21:25;;;;;;;;;;;;;;;;;;5057599;28;19909;-42
2022/04/29 07:23:50;;;;;;;;;;;;;;;;;;5057297;28;20368;-43
2022/04/29 07:26:15;;;;;;;;;;;;;;;;;;5057338;28;20385;-43
2022/04/29 07:28:41;;;;;;;;;;;;;;;;;;5057818;28;20342;-43
2022/04/29 07:31:06;;;;;;;;;;;;;;;;;;5057969;28;20359;-42
2022/04/29 07:33:31;;;;;;;;;;;;;;;;;;5057650;28;19908;-43
2022/04/29 07:44:08;;;;;;;;;;;;;;;;;;5057970;28;19975;-45
2022/04/29 07:46:36;;;;;;;;;;;;;;;;;;5057546;28;19909;-43
2022/04/29 07:49:01;;;;;;;;;;;;;;;;;;5057200;28;19913;-44
2022/04/29 07:51:27;;;;;;;;;;;;;;;;;;5057090;28;20314;-44
2022/04/29 07:53:52;;;;;;;;;;;;;;;;;;5056644;28;19919;-44
2022/04/29 07:56:17;;;;;;;;;;;;;;;;;;5057297;28;20012;-43
2022/04/29 07:58:42;;;;;;;;;;;;;;;;;;5056767;28;20006;-44
2022/04/29 08:01:09;;;;;;;;;;;;;;;;;;5056759;28;19948;-43
2022/04/29 08:03:35;;;;;;;;;;;;;;;;;;5057060;28;19954;-43
2022/04/29 08:06:00;;;;;;;;;;;;;;;;;;5056011;28;19969;-44
2022/04/29 08:08:25;;;;;;;;;;;;;;;;;;5056985;28;19999;-44
2022/04/29 08:10:51;;;;;;;;;;;;;;;;;;5056683;28;20002;-44
2022/04/29 08:13:16;;;;;;;;;;;;;;;;;;5056870;28;19913;-45
2022/04/29 08:15:43;;;;;;;;;;;;;;;;;;5056452;28;19913;-44
2022/04/29 08:18:09;;;;;;;;;;;;;;;;;;5056696;28;19909;-44
2022/04/29 08:20:34;;;;;;;;;;;;;;;;;;5056756;28;20270;-43
2022/04/29 08:22:59;;;;;;;;;;;;;;;;;;5056756;28;19915;-44
2022/04/29 08:25:24;;;;;;;;;;;;;;;;;;5055855;28;19916;-43
2022/04/29 08:27:51;;;;;;;;;;;;;;;;;;5056391;28;20245;-44
2022/04/29 08:30:16;;;;;;;;;;;;;;;;;;5056360;28;20279;-43
2022/04/29 08:32:41;;;;;;;;;;;;;;;;;;5056215;28;19945;-44
2022/04/29 08:35:06;;;;;;;;;;;;;;;;;;5056272;28;19909;-43
2022/04/29 08:37:31;;;;;;;;;;;;;;;;;;5055882;28;19916;-44
2022/04/29 08:39:57;;;;;;;;;;;;;;;;;;5056133;28;19909;-44
2022/04/29 08:42:23;;;;;;;;;;;;;;;;;;5055870;28;20360;-44
2022/04/29 08:44:48;;;;;;;;;;;;;;;;;;5055810;28;19909;-45
2022/04/29 08:47:13;;;;;;;;;;;;;;;;;;5055962;28;19908;-44
2022/04/29 08:49:38;;;;;;;;;;;;;;;;;;5055774;28;19917;-44
2022/04/29 08:52:04;;;;;;;;;;;;;;;;;;5055614;28;19908;-44
2022/04/29 08:59:56;;;;;;;;;;;;;;;;;;5055820;28;19915;-44
2022/04/29 09:02:21;;;;;;;;;;;;;;;;;;5055478;28;19909;-44
2022/04/29 09:04:47;;;;;;;;;;;;;;;;;;5055647;28;19908;-45
2022/04/29 09:07:12;;;;;;;;;;;;;;;;;;5055494;28;19909;-44
2022/04/29 09:09:37;;;;;;;;;;;;;;;;;;5055365;28;19913;-44
2022/04/29 09:12:02;;;;;;;;;;;;;;;;;;5055444;28;19919;-44
2022/04/29 09:14:27;;;;;;;;;;;;;;;;;;5055384;28;19915;-43
2022/04/29 09:16:54;;;;;;;;;;;;;;;;;;5055211;28;19967;-43
2022/04/29 09:19:19;;;;;;;;;;;;;;;;;;5055397;28;20355;-44
2022/04/29 09:21:44;;;;;;;;;;;;;;;;;;5055293;28;19935;-46
2022/04/29 09:24:10;;;;;;;;;;;;;;;;;;5055177;28;19939;-44
2022/04/29 09:26:35;;;;;;;;;;;;;;;;;;5054982;28;19962;-44
2022/04/29 09:29:00;;;;;;;;;;;;;;;;;;5054011;28;20291;-43
2022/04/29 09:31:28;;;;;;;;;;;;;;;;;;5055112;28;20272;-42
2022/04/29 09:33:54;;;;;;;;;;;;;;;;;;5055339;28;19909;-44
2022/04/29 09:36:19;;;;;;;;;;;;;;;;;;5053885;28;19917;-43
2022/04/29 09:41:28;;;;;;;;;;;;;;;;;;5055527;28;20272;-43
2022/04/29 09:43:55;;;;;;;;;;;;;;;;;;5054834;28;19912;-43
2022/04/29 09:46:20;;;;;;;;;;;;;;;;;;5055320;28;19917;-42
2022/04/29 09:48:45;;;;;;;;;;;;;;;;;;5055864;28;20027;-43
2022/04/29 09:51:10;;;;;;;;;;;;;;;;;;5057022;28;19909;-44
2022/04/29 09:53:36;;;;;;;;;;;;;;;;;;5055871;28;19905;-43
2022/04/29 09:56:01;;;;;;;;;;;;;;;;;;5055832;28;19963;-42
2022/04/29 09:58:26;;;;;;;;;;;;;;;;;;5055290;28;20317;-42
2022/04/29 10:00:51;;;;;;;;;;;;;;;;;;5055112;28;20310;-44
2022/04/29 10:03:16;;;;;;;;;;;;;;;;;;5055038;28;19909;-42
2022/04/29 10:05:41;;;;;;;;;;;;;;;;;;5054888;28;19948;-43
2022/04/29 10:08:06;;;;;;;;;;;;;;;;;;5055327;28;19927;-43
2022/04/29 10:10:31;;;;;;;;;;;;;;;;;;5056805;28;19913;-43
2022/04/29 10:12:57;;;;;;;;;;;;;;;;;;5055698;28;19913;-43
2022/04/29 10:15:22;;;;;;;;;;;;;;;;;;5049021;28;20001;-43
2022/04/29 10:23:15;;;;;;;;;;;;;;;;;;5055022;28;19967;-43
2022/04/29 10:25:40;;;;;;;;;;;;;;;;;;5054547;28;19917;-43
2022/04/29 10:28:05;;;;;;;;;;;;;;;;;;5055353;28;19926;-43
2022/04/29 10:30:31;;;;;;;;;;;;;;;;;;5059263;28;19923;-44
2022/04/29 10:32:56;;;;;;;;;;;;;;;;;;5059331;28;19916;-44
2022/04/29 10:35:21;;;;;;;;;;;;;;;;;;5060559;28;19912;-43
2022/04/29 10:37:46;;;;;;;;;;;;;;;;;;5057334;28;19909;-43
2022/04/29 10:40:11;;;;;;;;;;;;;;;;;;5058553;28;19913;-44
2022/04/29 10:42:36;;;;;;;;;;;;;;;;;;5058570;28;20697;-44
2022/04/29 10:45:01;;;;;;;;;;;;;;;;;;5058308;28;20003;-43
2022/04/29 10:47:40;;;;;;;;;;;;;;;;;;5058877;28;19995;-45
2022/04/29 10:50:06;;;;;;;;;;;;;;;;;;5058402;28;19916;-43
2022/04/29 10:52:31;;;;;;;;;;;;;;;;;;5058179;28;19916;-43
2022/04/29 10:54:56;;;;;;;;;;;;;;;;;;5059088;28;20023;-43
2022/04/29 10:57:21;;;;;;;;;;;;;;;;;;5058125;28;19917;-43
2022/04/29 10:59:46;;;;;;;;;;;;;;;;;;5058046;28;19928;-44
2022/04/29 11:02:14;;;;;;;;;;;;;;;;;;5058236;28;20260;-43
2022/04/29 11:04:39;;;;;;;;;;;;;;;;;;5057963;28;19986;-43
2022/04/29 11:07:04;;;;;;;;;;;;;;;;;;5057516;28;19955;-43
2022/04/29 11:09:30;;;;;;;;;;;;;;;;;;5057380;28;20011;-44
2022/04/29 11:11:55;;;;;;;;;;;;;;;;;;5057513;28;19909;-44
2022/04/29 11:14:20;;;;;;;;;;;;;;;;;;5057376;28;20275;-44
2022/04/29 11:16:45;;;;;;;;;;;;;;;;;;5057414;28;19913;-44
2022/04/29 11:19:10;;;;;;;;;;;;;;;;;;5057367;28;19909;-45
2022/04/29 11:27:03;;;;;;;;;;;;;;;;;;5057022;28;19987;-44
2022/04/29 11:29:29;;;;;;;;;;;;;;;;;;5057084;28;20336;-43
2022/04/29 11:31:56;;;;;;;;;;;;;;;;;;5057065;28;19909;-44
2022/04/29 11:34:21;;;;;;;;;;;;;;;;;;5056950;28;20287;-45
2022/04/29 11:36:46;;;;;;;;;;;;;;;;;;5056869;28;19908;-44
2022/04/29 11:39:11;;;;;;;;;;;;;;;;;;5056954;28;19909;-43
2022/04/29 11:41:36;;;;;;;;;;;;;;;;;;5055626;28;19916;-44
2022/04/29 11:44:02;;;;;;;;;;;;;;;;;;5056942;28;19916;-44
2022/04/29 11:46:27;;;;;;;;;;;;;;;;;;5056906;28;20271;-44
2022/04/29 11:48:53;;;;;;;;;;;;;;;;;;5056652;28;19913;-43
2022/04/29 11:51:18;;;;;;;;;;;;;;;;;;5056612;28;19912;-46
2022/04/29 11:53:43;;;;;;;;;;;;;;;;;;5056695;28;19905;-45
2022/04/29 11:56:08;;;;;;;;;;;;;;;;;;5056758;28;19908;-44
2022/04/29 11:58:37;;;;;;;;;;;;;;;;;;5069559;28;19908;-44
2022/04/29 12:01:03;;;;;;;;;;;;;;;;;;5078046;28;19915;-43
2022/04/29 12:03:28;;;;;;;;;;;;;;;;;;5077129;28;19909;-44
2022/04/29 12:05:53;;;;;;;;;;;;;;;;;;5076593;28;19909;-44
2022/04/29 12:08:18;;;;;;;;;;;;;;;;;;5076763;28;19908;-44
2022/04/29 12:10:47;;;;;;;;;;;;;;;;;;5076243;28;19919;-43
2022/04/29 12:13:12;;;;;;;;;;;;;;;;;;5076415;28;19909;-44
2022/04/29 12:15:37;;;;;;;;;;;;;;;;;;5075025;28;19920;-44
2022/04/29 12:18:02;;;;;;;;;;;;;;;;;;5056338;28;20133;-45
2022/04/29 12:20:28;;;;;;;;;;;;;;;;;;5056433;28;19944;-44
2022/04/29 12:22:53;;;;;;;;;;;;;;;;;;5056249;28;19909;-45
2022/04/29 12:25:18;;;;;;;;;;;;;;;;;;5055832;28;19966;-44
2022/04/29 12:27:43;;;;;;;;;;;;;;;;;;5055705;28;19925;-45
2022/04/29 12:35:38;;;;;;;;;;;;;;;;;;5056038;28;20407;-45
2022/04/29 12:38:03;;;;;;;;;;;;;;;;;;5055774;28;19908;-44
2022/04/29 12:40:28;;;;;;;;;;;;;;;;;;5055788;28;19916;-44
2022/04/29 12:42:53;;;;;;;;;;;;;;;;;;5055634;28;19909;-45
2022/04/29 12:45:22;;;;;;;;;;;;;;;;;;5055905;28;19909;-45
2022/04/29 12:47:49;;;;;;;;;;;;;;;;;;5055645;28;20375;-44
2022/04/29 12:50:14;;;;;;;;;;;;;;;;;;5055489;28;19959;-46
2022/04/29 12:52:39;;;;;;;;;;;;;;;;;;5054915;28;19909;-44
2022/04/29 12:55:04;;;;;;;;;;;;;;;;;;5055061;28;20368;-44
2022/04/29 12:57:29;;;;;;;;;;;;;;;;;;5055455;28;20001;-44
2022/04/29 12:59:54;;;;;;;;;;;;;;;;;;5055368;28;19916;-45
2022/04/29 13:02:20;;;;;;;;;;;;;;;;;;5055327;28;19909;-45
2022/04/29 13:04:45;;;;;;;;;;;;;;;;;;5055453;28;19909;-44
2022/04/29 13:07:10;;;;;;;;;;;;;;;;;;5053896;28;19944;-44
2022/04/29 13:09:35;;;;;;;;;;;;;;;;;;5055147;28;20007;-45
2022/04/29 13:12:00;;;;;;;;;;;;;;;;;;5055101;28;20351;-45
2022/04/29 13:14:26;;;;;;;;;;;;;;;;;;5055049;28;19912;-45
2022/04/29 13:16:51;;;;;;;;;;;;;;;;;;5055119;28;19913;-44
2022/04/29 13:19:17;;;;;;;;;;;;;;;;;;5055135;28;19912;-43
2022/04/29 13:21:43;;;;;;;;;;;;;;;;;;5055147;28;19916;-42
2022/04/29 13:24:08;;;;;;;;;;;;;;;;;;5055096;28;19909;-43
2022/04/29 13:26:33;;;;;;;;;;;;;;;;;;5058654;22;19922;-43
2022/04/29 13:28:58;;;;;;;;;;;;;;;;;;5035192;28;19917;-43
2022/04/29 13:31:23;;;;;;;;;;;;;;;;;;5035052;28;19994;-43
2022/04/29 13:33:50;;;;;;;;;;;;;;;;;;5034368;28;21539;-44
2022/04/29 13:36:16;;;;;;;;;;;;;;;;;;5034979;28;19963;-43
2022/04/29 13:38:41;;;;;;;;;;;;;;;;;;5034887;28;19916;-44
2022/04/29 13:41:06;;;;;;;;;;;;;;;;;;5034690;28;20431;-44
2022/04/29 13:43:34;;;;;;;;;;;;;;;;;;5033713;28;19909;-44
2022/04/29 13:45:59;;;;;;;;;;;;;;;;;;5034767;28;19915;-44
2022/04/29 13:48:25;;;;;;;;;;;;;;;;;;5034529;28;19952;-44
2022/04/29 13:50:50;;;;;;;;;;;;;;;;;;5034537;28;19917;-44
2022/04/29 13:53:15;;;;;;;;;;;;;;;;;;5034612;28;20360;-43
2022/04/29 13:55:40;;;;;;;;;;;;;;;;;;5051294;28;19955;-45
2022/04/29 13:58:05;;;;;;;;;;;;;;;;;;5054465;28;19968;-45
2022/04/29 14:00:31;;;;;;;;;;;;;;;;;;5054567;28;19916;-44
2022/04/29 14:02:56;;;;;;;;;;;;;;;;;;5054401;28;19991;-44
2022/04/29 14:05:23;;;;;;;;;;;;;;;;;;5053756;28;19913;-43
2022/04/29 14:07:48;;;;;;;;;;;;;;;;;;5054657;28;19909;-44
2022/04/29 14:10:13;;;;;;;;;;;;;;;;;;5054375;28;19913;-45
2022/04/29 14:12:38;;;;;;;;;;;;;;;;;;5054347;28;20001;-44
2022/04/29 14:15:03;;;;;;;;;;;;;;;;;;5054106;28;19908;-44
2022/04/29 14:17:29;;;;;;;;;;;;;;;;;;5054148;28;19920;-44
2022/04/29 14:19:54;;;;;;;;;;;;;;;;;;5054280;28;19906;-44
2022/04/29 14:22:19;;;;;;;;;;;;;;;;;;5054280;28;19987;-44
2022/04/29 14:24:44;;;;;;;;;;;;;;;;;;5054006;28;19913;-43
2022/04/29 14:27:09;;;;;;;;;;;;;;;;;;5053932;28;19921;-44
2022/04/29 14:29:35;;;;;;;;;;;;;;;;;;5054159;28;19913;-44
2022/04/29 14:32:00;;;;;;;;;;;;;;;;;;5054225;28;19999;-43
2022/04/29 14:34:26;;;;;;;;;;;;;;;;;;5054472;28;20332;-44
2022/04/29 14:36:51;;;;;;;;;;;;;;;;;;5054251;28;19932;-44
2022/04/29 14:39:16;;;;;;;;;;;;;;;;;;5054161;28;19909;-43
2022/04/29 14:41:42;;;;;;;;;;;;;;;;;;5054246;28;19970;-45
2022/04/29 14:44:07;;;;;;;;;;;;;;;;;;5054280;28;19962;-44
2022/04/29 14:46:32;;;;;;;;;;;;;;;;;;5054194;28;19916;-44
2022/04/29 14:48:57;;;;;;;;;;;;;;;;;;5054089;28;20280;-45
2022/04/29 14:51:22;;;;;;;;;;;;;;;;;;5054253;28;19909;-47
2022/04/29 14:53:48;;;;;;;;;;;;;;;;;;5054259;28;19909;-45
2022/04/29 14:56:13;;;;;;;;;;;;;;;;;;5053870;28;19916;-44
2022/04/29 14:58:38;;;;;;;;;;;;;;;;;;5053988;28;20019;-45
2022/04/29 15:01:03;;;;;;;;;;;;;;;;;;5054040;28;19970;-45
2022/04/29 15:03:28;;;;;;;;;;;;;;;;;;5053970;28;19916;-45
2022/04/29 15:05:56;;;;;;;;;;;;;;;;;;5053984;28;19909;-46
2022/04/29 15:08:21;;;;;;;;;;;;;;;;;;5053990;28;19909;-44
2022/04/29 15:16:14;;;;;;;;;;;;;;;;;;5056235;28;19962;-45
2022/04/29 15:18:39;;;;;;;;;;;;;;;;;;5057612;28;19912;-44
2022/04/29 15:21:05;;;;;;;;;;;;;;;;;;5057448;28;19912;-43
2022/04/29 15:23:30;;;;;;;;;;;;;;;;;;5057315;28;19919;-43
2022/04/29 15:25:55;;;;;;;;;;;;;;;;;;5056578;28;19947;-44
2022/04/29 15:28:21;;;;;;;;;;;;;;;;;;5056875;28;20063;-44
2022/04/29 15:30:49;;;;;;;;;;;;;;;;;;5057276;28;19936;-44
2022/04/29 15:33:14;;;;;;;;;;;;;;;;;;5057350;28;19995;-44
2022/04/29 15:35:39;;;;;;;;;;;;;;;;;;5055875;28;20011;-44
2022/04/29 15:38:04;;;;;;;;;;;;;;;;;;5057205;28;19916;-44
2022/04/29 15:40:29;;;;;;;;;;;;;;;;;;5057038;28;19915;-44
2022/04/29 15:42:54;;;;;;;;;;;;;;;;;;5057021;28;19948;-44
2022/04/29 15:45:19;;;;;;;;;;;;;;;;;;5056911;28;20003;-44
2022/04/29 15:47:45;;;;;;;;;;;;;;;;;;5055667;28;19909;-44
2022/04/29 15:50:10;;;;;;;;;;;;;;;;;;5056841;28;19919;-44
2022/04/29 15:52:35;;;;;;;;;;;;;;;;;;5057063;28;19952;-44
2022/04/29 15:55:00;;;;;;;;;;;;;;;;;;5056578;28;20279;-43
2022/04/29 15:57:25;;;;;;;;;;;;;;;;;;5056658;28;19905;-44
2022/04/29 15:59:50;;;;;;;;;;;;;;;;;;5056713;28;19909;-44
2022/04/29 16:02:16;;;;;;;;;;;;;;;;;;5056706;28;19909;-44
2022/04/29 16:04:41;;;;;;;;;;;;;;;;;;5056722;28;20007;-44
2022/04/29 16:07:06;;;;;;;;;;;;;;;;;;5056584;28;20010;-44
2022/04/29 16:09:31;;;;;;;;;;;;;;;;;;5056260;28;20014;-44
2022/04/29 16:11:56;;;;;;;;;;;;;;;;;;5056244;28;20267;-45
2022/04/29 16:14:21;;;;;;;;;;;;;;;;;;5056227;28;19983;-44
2022/04/29 16:16:46;;;;;;;;;;;;;;;;;;5056352;28;19962;-44
2022/04/29 16:21:55;;;;;;;;;;;;;;;;;;5056245;28;19951;-44
2022/04/29 16:27:04;;;;;;;;;;;;;;;;;;5055322;28;19923;-44
2022/04/29 16:29:30;;;;;;;;;;;;;;;;;;5052251;28;19913;-44
2022/04/29 16:31:55;;;;;;;;;;;;;;;;;;5036213;28;19932;-44
2022/04/29 16:34:20;;;;;;;;;;;;;;;;;;5036159;28;19909;-44
2022/04/29 16:36:45;;;;;;;;;;;;;;;;;;5036062;28;19909;-44
2022/04/29 16:39:11;;;;;;;;;;;;;;;;;;5036058;28;19910;-44
2022/04/29 16:41:40;;;;;;;;;;;;;;;;;;5035908;28;19909;-44
2022/04/29 16:44:05;;;;;;;;;;;;;;;;;;5035817;28;19916;-45
2022/04/29 16:46:30;;;;;;;;;;;;;;;;;;5035769;28;19917;-45
2022/04/29 16:48:55;;;;;;;;;;;;;;;;;;5035921;28;20245;-45
2022/04/29 16:51:21;;;;;;;;;;;;;;;;;;5035839;28;19913;-44
2022/04/29 16:53:46;;;;;;;;;;;;;;;;;;5035674;28;20386;-45
2022/04/29 16:56:11;;;;;;;;;;;;;;;;;;5050759;28;20307;-44
2022/04/29 16:58:42;;;;;;;;;;;;;;;;;;5055440;28;20378;-44
2022/04/29 17:01:07;;;;;;;;;;;;;;;;;;5055509;28;19909;-46
2022/04/29 17:03:32;;;;;;;;;;;;;;;;;;5055287;28;19970;-45
2022/04/29 17:05:57;;;;;;;;;;;;;;;;;;5055259;28;19919;-44
2022/04/29 17:08:25;;;;;;;;;;;;;;;;;;5055176;28;20000;-44
2022/04/29 17:10:50;;;;;;;;;;;;;;;;;;5055392;28;20360;-44
2022/04/29 17:13:16;;;;;;;;;;;;;;;;;;5055229;28;19909;-44
2022/04/29 17:15:42;;;;;;;;;;;;;;;;;;5055286;28;19916;-44
2022/04/29 17:18:07;;;;;;;;;;;;;;;;;;5055185;28;19909;-45
2022/04/29 17:20:32;;;;;;;;;;;;;;;;;;5054961;28;19986;-44
2022/04/29 17:22:57;;;;;;;;;;;;;;;;;;5051778;28;20007;-45
2022/04/29 17:25:22;;;;;;;;;;;;;;;;;;5051276;28;19999;-44